Terminal Aerodrome Forecast
Issued by NWS

Home | Current Version | Previous Version | Text Only | Print | Product List | Glossary On
Versions: 1 2 3 4 5 6 7 8 9 10 11 12 13 14 15
000
FTAK31 PAJN 231100
TAFAJN
TAF
PAJN 231125Z 2312/2412 08006KT P6SM FEW020 BKN035 OVC060
     FM232100 12012KT P6SM VCSH BKN035 OVC070
     FM240000 14006KT P6SM VCSH OVC050
     FM240400 09004KT P6SM VCSH SCT025 OVC050=

USA.gov is the U.S. government's official web portal to all federal, state and local government web resources and services.